Time;durP1;ratioP1;P1;durP2;ratioP2;P2;SDS_P1;SDS_P2;PMS_P1;PMS_P2;Temp;Humidity;BMP_temperature;BMP_pressure;BME280_temperature;BME280_humidity;BME280_pressure;Samples;Min_cycle;Max_cycle;Signal;HPM_P1;HPM_P2
2022/10/01 00:00:50;;;;;;;14.87;11.37;;;11.60;99.90;;;;;;4977710;28;20466;-70
2022/10/01 00:03:17;;;;;;;11.60;10.40;;;11.60;99.90;;;;;;4977538;28;22446;-70
2022/10/01 00:05:45;;;;;;;13.50;10.90;;;11.50;99.90;;;;;;4977926;28;20850;-70
2022/10/01 00:08:13;;;;;;;12.90;11.10;;;11.50;99.90;;;;;;4977670;28;20458;-70
2022/10/01 00:10:41;;;;;;;15.47;12.17;;;11.50;99.90;;;;;;4977480;28;20556;-70
2022/10/01 00:13:09;;;;;;;15.33;12.30;;;11.40;99.90;;;;;;4977718;28;20459;-70
2022/10/01 00:15:39;;;;;;;12.67;11.37;;;11.40;99.90;;;;;;4977696;28;20459;-70
2022/10/01 00:18:07;;;;;;;16.43;12.33;;;11.40;99.90;;;;;;4977504;28;20785;-70
2022/10/01 00:20:35;;;;;;;14.40;12.87;;;11.30;99.90;;;;;;4977574;28;20911;-70
2022/10/01 00:23:02;;;;;;;15.50;11.97;;;11.30;99.90;;;;;;4977435;28;20481;-70
2022/10/01 00:25:29;;;;;;;14.83;11.07;;;11.30;99.90;;;;;;4977925;28;20473;-70
2022/10/01 00:27:56;;;;;;;12.77;11.47;;;11.20;99.90;;;;;;4978255;28;20756;-71
2022/10/01 00:30:22;;;;;;;12.93;11.10;;;11.20;99.90;;;;;;4977707;28;20972;-70
2022/10/01 00:32:52;;;;;;;12.33;11.03;;;11.10;99.90;;;;;;4977153;28;20466;-69
2022/10/01 00:35:22;;;;;;;12.70;10.80;;;11.10;99.90;;;;;;4977693;28;20537;-70
2022/10/01 00:37:49;;;;;;;11.17;10.07;;;11.10;99.90;;;;;;4977133;28;20937;-70
2022/10/01 00:40:16;;;;;;;16.03;11.30;;;11.10;99.90;;;;;;4977178;28;20541;-70
2022/10/01 00:42:43;;;;;;;10.40;9.33;;;11.10;99.90;;;;;;4977027;28;20509;-70
2022/10/01 00:45:11;;;;;;;11.27;10.17;;;11.10;99.90;;;;;;4977013;28;20490;-70
2022/10/01 00:47:42;;;;;;;11.20;10.10;;;11.10;99.90;;;;;;4976711;28;20462;-70
2022/10/01 00:50:15;;;;;;;11.30;9.80;;;11.10;99.90;;;;;;4976683;28;20443;-70
2022/10/01 00:52:48;;;;;;;11.17;10.07;;;11.00;99.90;;;;;;4976974;28;20868;-70
2022/10/01 00:55:19;;;;;;;11.63;10.40;;;11.00;99.90;;;;;;4977087;28;20457;-70
2022/10/01 00:57:47;;;;;;;11.13;9.90;;;11.00;99.90;;;;;;4976955;28;20526;-70
2022/10/01 01:00:14;;;;;;;11.67;10.17;;;11.00;99.90;;;;;;4976660;28;20455;-69
2022/10/01 01:02:42;;;;;;;9.70;8.70;;;11.00;99.90;;;;;;4976603;28;20469;-69
2022/10/01 01:05:12;;;;;;;11.17;9.97;;;11.00;99.90;;;;;;4976835;28;20574;-70
2022/10/01 01:07:43;;;;;;;11.37;9.43;;;11.00;99.90;;;;;;4976429;28;20892;-70
2022/10/01 01:10:13;;;;;;;12.80;9.90;;;11.00;99.90;;;;;;4976672;28;20479;-69
2022/10/01 01:12:55;;;;;;;11.50;10.30;;;11.00;99.90;;;;;;4977099;28;20463;-69
2022/10/01 01:15:26;;;;;;;10.70;9.70;;;11.00;99.90;;;;;;4976880;28;20443;-70
2022/10/01 01:17:59;;;;;;;10.70;9.60;;;11.00;99.90;;;;;;4977979;28;20532;-70
2022/10/01 01:20:50;;;;;;;11.20;10.10;;;11.00;99.90;;;;;;4978212;28;20768;-70
2022/10/01 01:23:57;;;;;;;11.70;10.50;;;11.00;99.90;;;;;;4976141;28;20551;-70
2022/10/01 01:26:36;;;;;;;13.17;10.13;;;11.00;99.90;;;;;;4975552;28;20458;-70
2022/10/01 01:29:09;;;;;;;13.10;10.87;;;11.00;99.90;;;;;;4976515;28;20443;-70
2022/10/01 01:31:41;;;;;;;16.63;11.33;;;11.00;99.90;;;;;;4976291;28;20439;-70
2022/10/01 01:34:11;;;;;;;13.50;11.80;;;10.90;99.90;;;;;;4976465;28;20461;-69
2022/10/01 01:36:43;;;;;;;15.20;13.70;;;10.90;99.90;;;;;;4976285;28;20459;-69
2022/10/01 01:39:13;;;;;;;17.23;11.80;;;10.90;99.90;;;;;;4976198;28;20533;-70
2022/10/01 01:41:47;;;;;;;13.60;12.20;;;10.90;99.90;;;;;;4976617;28;20475;-70
2022/10/01 01:44:16;;;;;;;13.37;11.97;;;10.90;99.90;;;;;;4976176;28;20554;-72
2022/10/01 01:46:48;;;;;;;13.63;12.23;;;10.90;99.90;;;;;;4976200;28;20458;-71
2022/10/01 01:49:16;;;;;;;12.70;11.40;;;10.90;99.90;;;;;;4976456;28;20451;-70
2022/10/01 01:51:49;;;;;;;13.17;11.80;;;10.90;99.90;;;;;;4975722;28;20557;-70
2022/10/01 01:54:17;;;;;;;12.90;11.33;;;10.80;99.90;;;;;;4976019;28;20541;-70
2022/10/01 01:56:44;;;;;;;18.70;11.57;;;10.80;99.90;;;;;;4975930;28;20469;-70
2022/10/01 01:59:12;;;;;;;14.90;11.20;;;10.80;99.90;;;;;;4975946;28;20484;-70
2022/10/01 02:01:42;;;;;;;12.80;10.60;;;10.80;99.90;;;;;;4975828;28;20806;-70
2022/10/01 02:04:19;;;;;;;12.50;11.20;;;10.70;99.90;;;;;;4975744;28;20570;-70
2022/10/01 02:07:07;;;;;;;15.80;11.27;;;10.70;99.90;;;;;;4975928;28;20447;-70
2022/10/01 02:09:38;;;;;;;16.43;11.33;;;10.70;99.90;;;;;;4972342;28;20791;-70
2022/10/01 02:12:13;;;;;;;12.03;10.70;;;10.60;99.90;;;;;;4975865;28;20486;-70
2022/10/01 02:14:50;;;;;;;13.10;11.23;;;10.60;99.90;;;;;;4975381;28;20446;-71
2022/10/01 02:17:29;;;;;;;12.33;11.13;;;10.50;99.90;;;;;;4975954;28;20455;-70
2022/10/01 02:20:00;;;;;;;11.93;10.73;;;10.50;99.90;;;;;;4975711;28;20458;-70
2022/10/01 02:22:34;;;;;;;12.27;11.00;;;10.50;99.90;;;;;;4975844;28;20453;-70
2022/10/01 02:25:04;;;;;;;13.23;11.87;;;10.50;99.90;;;;;;4975991;28;20482;-70
2022/10/01 02:27:40;;;;;;;12.70;10.80;;;10.40;99.90;;;;;;4975433;28;20897;-70
2022/10/01 02:30:09;;;;;;;12.20;11.10;;;10.40;99.90;;;;;;4975711;28;20909;-69
2022/10/01 02:32:40;;;;;;;12.20;11.10;;;10.30;99.90;;;;;;4975525;28;20459;-71
2022/10/01 02:35:11;;;;;;;13.23;11.80;;;10.30;99.90;;;;;;4975785;28;20450;-71
2022/10/01 02:37:40;;;;;;;12.83;11.53;;;10.30;99.90;;;;;;4975658;28;20443;-71
2022/10/01 02:40:13;;;;;;;12.83;10.73;;;10.30;99.90;;;;;;4975538;28;20485;-71
2022/10/01 02:42:41;;;;;;;12.00;10.80;;;10.20;99.90;;;;;;4975453;28;20454;-70
2022/10/01 02:45:11;;;;;;;15.07;12.20;;;10.20;99.90;;;;;;4975624;28;20879;-70
2022/10/01 02:47:43;;;;;;;12.37;11.17;;;10.20;99.90;;;;;;4975633;28;20541;-70
2022/10/01 02:50:12;;;;;;;14.83;11.90;;;10.20;99.90;;;;;;4975606;28;20451;-71
2022/10/01 02:52:44;;;;;;;13.77;12.37;;;10.10;99.90;;;;;;4975205;28;20567;-70
2022/10/01 02:55:13;;;;;;;13.80;12.17;;;10.10;99.90;;;;;;4975916;28;20443;-70
2022/10/01 02:57:40;;;;;;;12.53;11.20;;;10.10;99.90;;;;;;4975710;28;20459;-71
2022/10/01 03:00:10;;;;;;;13.50;12.10;;;10.10;99.90;;;;;;4975247;28;20466;-71
2022/10/01 03:02:37;;;;;;;12.50;11.20;;;10.10;99.90;;;;;;4975422;28;20498;-70
2022/10/01 03:05:06;;;;;;;13.37;12.07;;;10.10;99.90;;;;;;4976622;28;20980;-70
2022/10/01 03:07:34;;;;;;;14.60;12.40;;;10.10;99.90;;;;;;4978673;28;20465;-71
2022/10/01 03:10:01;;;;;;;14.27;12.50;;;10.00;99.90;;;;;;4979046;28;20469;-70
2022/10/01 03:12:28;;;;;;;13.27;11.87;;;10.00;99.90;;;;;;4978996;28;20458;-70
2022/10/01 03:14:55;;;;;;;15.50;11.80;;;10.00;99.90;;;;;;4978915;28;20461;-70
2022/10/01 03:17:21;;;;;;;13.00;11.53;;;10.00;99.90;;;;;;4979019;28;20747;-70
2022/10/01 03:19:48;;;;;;;14.97;11.23;;;10.00;99.90;;;;;;4978911;28;20458;-70
2022/10/01 03:22:21;;;;;;;13.80;11.43;;;10.00;99.90;;;;;;4978923;28;20458;-70
2022/10/01 03:24:48;;;;;;;13.10;11.70;;;10.00;99.90;;;;;;4979043;28;20841;-71
2022/10/01 03:27:15;;;;;;;12.10;10.73;;;10.00;99.90;;;;;;4978436;28;20468;-71
2022/10/01 03:29:41;;;;;;;11.53;10.33;;;9.90;99.90;;;;;;4978131;28;20911;-71
2022/10/01 03:32:08;;;;;;;12.17;10.27;;;9.90;99.90;;;;;;4978347;28;20553;-71
2022/10/01 03:34:35;;;;;;;12.30;10.80;;;9.90;99.90;;;;;;4978403;28;20918;-70
2022/10/01 03:37:02;;;;;;;12.57;10.63;;;9.90;99.90;;;;;;4978756;28;20458;-71
2022/10/01 03:39:31;;;;;;;11.47;10.27;;;9.90;99.90;;;;;;4978159;28;20967;-70
2022/10/01 03:41:58;;;;;;;11.60;10.40;;;9.90;99.90;;;;;;4977960;28;20466;-69
2022/10/01 03:44:24;;;;;;;16.07;10.37;;;9.90;99.90;;;;;;4978308;28;20795;-70
2022/10/01 03:46:51;;;;;;;11.80;10.20;;;9.90;99.90;;;;;;4978233;28;20471;-70
2022/10/01 03:49:18;;;;;;;14.23;10.77;;;9.90;99.90;;;;;;4978186;28;20462;-70
2022/10/01 03:51:45;;;;;;;11.03;9.83;;;9.90;99.90;;;;;;4978326;28;20810;-70
2022/10/01 03:54:12;;;;;;;11.10;10.00;;;9.90;99.90;;;;;;4978232;28;20444;-69
2022/10/01 03:56:41;;;;;;;12.77;11.47;;;9.90;99.90;;;;;;4978173;28;20472;-71
2022/10/01 03:59:08;;;;;;;11.10;10.00;;;9.90;99.90;;;;;;4978229;28;21029;-71
2022/10/01 04:01:35;;;;;;;10.60;9.60;;;9.90;99.90;;;;;;4978150;28;20793;-70
2022/10/01 04:04:02;;;;;;;11.33;10.23;;;9.90;99.90;;;;;;4977569;28;20455;-69
2022/10/01 04:06:29;;;;;;;10.60;9.60;;;9.90;99.90;;;;;;4977670;28;20525;-70
2022/10/01 04:08:56;;;;;;;15.50;8.87;;;9.90;99.90;;;;;;4977869;28;20458;-69
2022/10/01 04:11:23;;;;;;;11.63;10.43;;;9.90;99.90;;;;;;4977887;28;20469;-69
2022/10/01 04:13:51;;;;;;;10.93;9.80;;;9.90;99.90;;;;;;4977974;28;20455;-71
2022/10/01 04:16:18;;;;;;;11.13;10.03;;;9.90;99.90;;;;;;4977404;28;20459;-70
2022/10/01 04:18:45;;;;;;;12.27;9.60;;;9.90;99.90;;;;;;4977759;28;20862;-70
2022/10/01 04:21:14;;;;;;;11.17;9.43;;;9.90;99.90;;;;;;4978085;28;20468;-71
2022/10/01 04:23:41;;;;;;;13.63;9.27;;;9.90;99.90;;;;;;4977979;28;20771;-71
2022/10/01 04:26:07;;;;;;;11.10;9.57;;;9.80;99.90;;;;;;4977712;28;20581;-71
2022/10/01 04:28:35;;;;;;;10.63;9.17;;;9.80;99.90;;;;;;4977617;28;20488;-71
2022/10/01 04:33:47;;;;;;;11.10;10.00;;;9.80;99.90;;;;;;4977523;28;20434;-70
2022/10/01 04:36:14;;;;;;;10.80;9.70;;;9.80;99.90;;;;;;4977976;28;20466;-70
2022/10/01 04:38:41;;;;;;;10.27;9.17;;;9.80;99.90;;;;;;4978261;28;20459;-70
2022/10/01 04:41:08;;;;;;;11.53;9.90;;;9.80;99.90;;;;;;4978031;28;20490;-70
2022/10/01 04:43:36;;;;;;;9.60;8.60;;;9.80;99.90;;;;;;4977099;28;20593;-70
2022/10/01 04:46:04;;;;;;;12.20;10.67;;;9.70;99.90;;;;;;4977515;28;20497;-70
2022/10/01 04:48:31;;;;;;;10.60;9.50;;;9.70;99.90;;;;;;4976717;28;20469;-70
2022/10/01 04:50:58;;;;;;;10.23;8.80;;;9.70;99.90;;;;;;4977206;28;20784;-70
2022/10/01 04:53:25;;;;;;;10.53;9.43;;;9.70;99.90;;;;;;4976713;28;20482;-70
2022/10/01 04:55:52;;;;;;;12.00;10.10;;;9.70;99.90;;;;;;4976776;28;20469;-70
2022/10/01 04:58:18;;;;;;;10.27;9.27;;;9.70;99.90;;;;;;4977185;28;20463;-70
2022/10/01 05:00:45;;;;;;;11.13;10.13;;;9.70;99.90;;;;;;4977023;28;20770;-70
2022/10/01 05:03:13;;;;;;;10.90;9.63;;;9.70;99.90;;;;;;4976575;28;20458;-69
2022/10/01 05:05:40;;;;;;;10.90;8.10;;;9.60;99.90;;;;;;4976574;28;20497;-71
2022/10/01 05:08:07;;;;;;;9.30;8.33;;;9.70;99.90;;;;;;4976522;28;20470;-70
2022/10/01 05:10:34;;;;;;;10.60;9.60;;;9.70;99.90;;;;;;4976645;28;20458;-70
2022/10/01 05:13:01;;;;;;;10.80;9.10;;;9.80;99.90;;;;;;4976868;28;20501;-69
2022/10/01 05:15:28;;;;;;;10.80;9.03;;;9.80;99.90;;;;;;4976883;28;20878;-69
2022/10/01 05:17:55;;;;;;;11.43;8.87;;;9.80;99.90;;;;;;4976661;28;20458;-70
2022/10/01 05:20:25;;;;;;;9.67;8.77;;;9.80;99.90;;;;;;4976527;28;20782;-70
2022/10/01 05:22:53;;;;;;;11.60;9.13;;;9.80;99.90;;;;;;4976990;28;20459;-70
2022/10/01 05:25:20;;;;;;;8.77;7.90;;;9.80;99.90;;;;;;4976558;28;20483;-70
2022/10/01 05:27:47;;;;;;;8.93;8.13;;;9.80;99.90;;;;;;4975817;28;20488;-70
2022/10/01 05:30:22;;;;;;;10.37;9.00;;;9.80;99.90;;;;;;4976066;28;20919;-70
2022/10/01 05:32:57;;;;;;;9.53;8.40;;;9.80;99.90;;;;;;4976009;28;20442;-70
2022/10/01 05:35:25;;;;;;;9.77;8.30;;;9.70;99.90;;;;;;4976271;28;20457;-70
2022/10/01 05:37:54;;;;;;;9.90;7.90;;;9.80;99.90;;;;;;4976125;28;20919;-70
2022/10/01 05:40:20;;;;;;;9.40;8.40;;;9.80;99.90;;;;;;4975996;28;20469;-70
2022/10/01 05:42:48;;;;;;;8.80;7.90;;;9.80;99.90;;;;;;4976151;28;20554;-70
2022/10/01 05:45:14;;;;;;;8.90;8.00;;;9.80;99.90;;;;;;4975886;28;20486;-70
2022/10/01 05:47:43;;;;;;;8.57;7.77;;;9.80;99.90;;;;;;4976258;28;20458;-70
2022/10/01 05:50:10;;;;;;;8.33;7.60;;;9.90;99.90;;;;;;4976034;28;20517;-70
2022/10/01 05:52:39;;;;;;;8.40;7.60;;;9.90;99.90;;;;;;4976009;28;20486;-71
2022/10/01 05:55:07;;;;;;;8.10;7.17;;;10.00;99.90;;;;;;4976453;28;20469;-70
2022/10/01 05:57:34;;;;;;;8.30;7.50;;;10.00;99.90;;;;;;4976263;28;20787;-71
2022/10/01 06:00:01;;;;;;;8.30;7.00;;;10.00;99.90;;;;;;4975998;28;20466;-70
2022/10/01 06:02:27;;;;;;;10.13;7.47;;;10.10;99.90;;;;;;4976187;28;20473;-71
2022/10/01 06:04:54;;;;;;;7.47;6.77;;;10.10;99.90;;;;;;4976054;28;20879;-70
2022/10/01 06:07:21;;;;;;;9.90;7.70;;;10.10;99.90;;;;;;4975943;28;20558;-70
2022/10/01 06:09:49;;;;;;;9.27;7.40;;;10.10;99.90;;;;;;4975675;28;20557;-70
2022/10/01 06:12:16;;;;;;;8.80;7.80;;;10.20;99.90;;;;;;4976192;28;20463;-71
2022/10/01 06:14:43;;;;;;;9.67;7.50;;;10.20;99.90;;;;;;4975655;28;20469;-70
2022/10/01 06:17:10;;;;;;;7.77;7.00;;;10.20;99.90;;;;;;4975895;28;20458;-71
2022/10/01 06:19:36;;;;;;;10.23;7.93;;;10.30;99.90;;;;;;4976099;28;20469;-71
2022/10/01 06:22:03;;;;;;;9.07;7.70;;;10.30;99.90;;;;;;4975859;28;20545;-71
2022/10/01 06:24:30;;;;;;;12.60;8.80;;;10.30;99.90;;;;;;4975502;28;20937;-70
2022/10/01 06:26:58;;;;;;;8.37;7.57;;;10.30;99.90;;;;;;4975978;28;20594;-71
2022/10/01 06:29:25;;;;;;;8.73;7.83;;;10.40;99.90;;;;;;4975940;28;20490;-71
2022/10/01 06:31:52;;;;;;;8.33;7.50;;;10.50;99.90;;;;;;4975931;28;20458;-71
2022/10/01 06:34:19;;;;;;;7.60;6.80;;;10.50;99.90;;;;;;4975784;28;20481;-71
2022/10/01 06:36:45;;;;;;;9.87;7.87;;;10.50;99.90;;;;;;4976581;28;20792;-71
2022/10/01 06:39:12;;;;;;;9.93;7.47;;;10.50;99.90;;;;;;4978031;28;20459;-71
2022/10/01 06:41:39;;;;;;;8.73;7.87;;;10.60;99.90;;;;;;4979643;28;20480;-71
2022/10/01 06:44:07;;;;;;;7.70;7.00;;;10.60;99.90;;;;;;4979718;28;20540;-71
2022/10/01 06:46:35;;;;;;;8.37;7.57;;;10.60;99.90;;;;;;4979747;28;20493;-71
2022/10/01 06:49:01;;;;;;;8.00;7.20;;;10.70;99.90;;;;;;4980412;28;20462;-71
2022/10/01 06:54:10;;;;;;;10.20;7.23;;;10.70;99.90;;;;;;4959063;29;20467;-70
2022/10/01 06:56:36;;;;;;;10.47;7.03;;;10.70;99.90;;;;;;4960267;29;20455;-69
2022/10/01 06:59:03;;;;;;;9.80;8.20;;;10.70;99.90;;;;;;4960126;29;20776;-70
2022/10/01 07:01:32;;;;;;;9.20;7.13;;;10.70;99.90;;;;;;4960012;29;20554;-71
2022/10/01 07:03:59;;;;;;;8.73;7.60;;;10.80;99.90;;;;;;4960005;29;20470;-72
2022/10/01 07:06:26;;;;;;;7.80;6.97;;;10.80;99.90;;;;;;4959983;29;20565;-70
2022/10/01 07:08:52;;;;;;;8.90;7.53;;;10.80;99.90;;;;;;4959825;29;20920;-70
2022/10/01 07:11:19;;;;;;;9.00;7.43;;;10.90;99.90;;;;;;4959845;29;20471;-70
2022/10/01 07:13:46;;;;;;;7.73;6.93;;;10.90;99.90;;;;;;4960216;29;20469;-70
2022/10/01 07:16:14;;;;;;;8.43;7.63;;;10.90;99.90;;;;;;4960013;29;20542;-71
2022/10/01 07:18:42;;;;;;;9.33;7.57;;;10.90;99.90;;;;;;4959891;29;20566;-72
2022/10/01 07:21:09;;;;;;;7.97;7.07;;;11.00;99.90;;;;;;4960338;29;20842;-69
2022/10/01 07:23:36;;;;;;;10.10;7.20;;;11.00;99.90;;;;;;4959692;29;20470;-71
2022/10/01 07:26:04;;;;;;;8.70;7.47;;;11.00;99.90;;;;;;4959769;29;20487;-70
2022/10/01 07:28:31;;;;;;;8.83;7.87;;;11.10;99.90;;;;;;4959600;29;20469;-71
2022/10/01 07:31:00;;;;;;;8.50;7.70;;;11.10;99.90;;;;;;4959220;29;20464;-71
2022/10/01 07:33:27;;;;;;;10.07;7.40;;;11.10;99.90;;;;;;4959285;29;20463;-71
2022/10/01 07:35:55;;;;;;;8.87;7.37;;;11.10;99.90;;;;;;4959273;29;20459;-71
2022/10/01 07:38:22;;;;;;;10.13;8.23;;;11.20;99.90;;;;;;4959781;29;20459;-71
2022/10/01 07:40:53;;;;;;;12.57;7.93;;;11.30;99.90;;;;;;4959029;29;20939;-70
2022/10/01 07:43:20;;;;;;;8.70;7.77;;;11.30;99.90;;;;;;4959492;29;20798;-70
2022/10/01 07:45:48;;;;;;;11.00;8.37;;;11.30;99.90;;;;;;4959175;29;20495;-71
2022/10/01 07:48:15;;;;;;;9.07;7.40;;;11.40;99.90;;;;;;4965498;29;20515;-70
2022/10/01 07:50:44;;;;;;;12.30;8.07;;;11.40;99.90;;;;;;4964501;28;20485;-70
2022/10/01 07:53:12;;;;;;;9.70;8.10;;;11.50;99.90;;;;;;4978397;28;20501;-71
2022/10/01 07:55:39;;;;;;;11.87;7.80;;;11.60;99.90;;;;;;4983655;28;20659;-70
2022/10/01 07:58:06;;;;;;;8.83;7.60;;;11.70;99.90;;;;;;4983488;28;20538;-70
2022/10/01 08:00:34;;;;;;;7.53;6.80;;;11.70;99.90;;;;;;4984952;28;20459;-71
2022/10/01 08:03:01;;;;;;;7.60;6.90;;;11.80;99.90;;;;;;4982437;28;20454;-70
2022/10/01 08:05:30;;;;;;;10.80;7.50;;;11.80;99.90;;;;;;4980835;28;20484;-70
2022/10/01 08:07:59;;;;;;;8.83;7.93;;;11.80;99.90;;;;;;4981982;28;20553;-71
2022/10/01 08:10:27;;;;;;;8.93;8.00;;;11.90;99.90;;;;;;4981245;28;20550;-70
2022/10/01 08:13:00;;;;;;;8.87;7.50;;;11.90;99.90;;;;;;4982324;28;20473;-70
2022/10/01 08:15:27;;;;;;;9.63;7.03;;;12.00;99.90;;;;;;4981824;28;20454;-70
2022/10/01 08:17:54;;;;;;;8.00;7.20;;;12.00;99.90;;;;;;4981292;28;20458;-70
2022/10/01 08:20:21;;;;;;;7.07;6.43;;;12.00;99.90;;;;;;4982102;28;20471;-70
2022/10/01 08:22:48;;;;;;;7.57;6.83;;;12.10;99.90;;;;;;4983383;28;20474;-70
2022/10/01 08:25:15;;;;;;;8.07;7.30;;;12.10;99.90;;;;;;4985049;28;20463;-71
2022/10/01 08:27:43;;;;;;;8.53;7.13;;;12.10;99.90;;;;;;4982138;28;20553;-70
2022/10/01 08:30:10;;;;;;;8.97;6.93;;;12.10;99.90;;;;;;4981934;28;20463;-71
2022/10/01 08:32:37;;;;;;;7.97;7.27;;;12.10;99.90;;;;;;4980220;28;20469;-70
2022/10/01 08:35:05;;;;;;;8.83;6.50;;;12.20;99.90;;;;;;4980332;28;20462;-71
2022/10/01 08:37:32;;;;;;;11.33;6.40;;;12.30;99.90;;;;;;4982660;28;20463;-71
2022/10/01 08:39:58;;;;;;;7.87;6.50;;;12.30;99.90;;;;;;4980642;28;20553;-71
2022/10/01 08:42:43;;;;;;;7.23;6.53;;;12.30;99.90;;;;;;4981028;28;20935;-69
2022/10/01 08:45:15;;;;;;;8.00;6.60;;;12.30;99.90;;;;;;4982825;28;20443;-70
2022/10/01 08:47:48;;;;;;;7.53;6.43;;;12.30;99.90;;;;;;4983184;28;20470;-70
2022/10/01 08:50:25;;;;;;;7.20;6.50;;;12.30;99.90;;;;;;4981474;28;20533;-71
2022/10/01 08:52:55;;;;;;;7.90;7.10;;;12.40;99.90;;;;;;4982507;28;20490;-71
2022/10/01 08:55:26;;;;;;;7.27;6.57;;;12.40;99.90;;;;;;4983992;28;20569;-70
2022/10/01 08:57:57;;;;;;;7.87;6.43;;;12.50;99.90;;;;;;4982491;28;20447;-71
2022/10/01 09:00:29;;;;;;;7.60;6.80;;;12.60;99.90;;;;;;4983297;28;20457;-72
2022/10/01 09:02:59;;;;;;;8.53;7.07;;;12.60;99.90;;;;;;4984378;28;20453;-70
2022/10/01 09:05:32;;;;;;;7.10;6.40;;;12.70;99.90;;;;;;4982932;28;20478;-71
2022/10/01 09:08:15;;;;;;;6.27;5.67;;;12.80;99.90;;;;;;4983473;28;20518;-70
2022/10/01 09:10:45;;;;;;;8.90;6.77;;;12.80;99.90;;;;;;4982987;28;20447;-71
2022/10/01 09:13:51;;;;;;;9.70;5.87;;;12.80;99.90;;;;;;4983697;28;20529;-71
2022/10/01 09:16:25;;;;;;;6.40;5.80;;;12.90;99.90;;;;;;4983544;28;20446;-70
2022/10/01 09:19:06;;;;;;;6.70;6.10;;;12.90;99.90;;;;;;4982752;28;20439;-70
2022/10/01 09:21:47;;;;;;;6.57;5.87;;;13.00;99.90;;;;;;4984634;28;20473;-71
2022/10/01 09:24:16;;;;;;;6.30;5.70;;;13.10;99.90;;;;;;4980992;28;20791;-71
2022/10/01 09:26:47;;;;;;;6.37;5.77;;;13.20;99.90;;;;;;4982155;28;20497;-70
2022/10/01 09:29:22;;;;;;;5.67;4.90;;;13.30;99.90;;;;;;4982515;28;20533;-71
2022/10/01 09:31:53;;;;;;;6.13;5.20;;;13.40;99.90;;;;;;4983485;28;20474;-70
2022/10/01 09:34:28;;;;;;;5.60;5.10;;;13.40;99.90;;;;;;4982321;28;20853;-72
2022/10/01 09:37:05;;;;;;;6.80;5.27;;;13.60;99.90;;;;;;4986398;28;20435;-71
2022/10/01 09:39:39;;;;;;;6.30;5.67;;;13.70;99.90;;;;;;4981935;28;20443;-71
2022/10/01 09:42:06;;;;;;;5.70;4.63;;;13.70;99.90;;;;;;4982913;28;20446;-70
2022/10/01 09:44:33;;;;;;;5.20;4.73;;;13.70;99.90;;;;;;4982797;28;20466;-71
2022/10/01 09:47:01;;;;;;;5.33;4.67;;;13.70;99.90;;;;;;4983093;28;20974;-70
2022/10/01 09:49:32;;;;;;;5.93;4.27;;;13.70;99.90;;;;;;4983403;28;20494;-70
2022/10/01 09:52:05;;;;;;;4.17;3.80;;;13.60;99.90;;;;;;4982720;28;20486;-70
2022/10/01 09:54:37;;;;;;;4.57;3.90;;;13.60;99.90;;;;;;4982995;28;20443;-69
2022/10/01 09:57:09;;;;;;;3.93;3.00;;;13.60;99.90;;;;;;4984490;28;20457;-69
2022/10/01 09:59:44;;;;;;;3.67;3.33;;;13.60;99.90;;;;;;4984065;28;20463;-71
2022/10/01 10:02:20;;;;;;;3.33;3.03;;;13.50;99.90;;;;;;4983858;28;20458;-70
2022/10/01 10:04:46;;;;;;;5.80;3.57;;;13.40;99.90;;;;;;4984331;28;20447;-70
2022/10/01 10:07:18;;;;;;;3.13;2.73;;;13.30;99.90;;;;;;4982573;28;20857;-70
2022/10/01 10:09:45;;;;;;;3.00;2.77;;;13.20;99.90;;;;;;4982914;28;20875;-70
2022/10/01 10:12:28;;;;;;;4.73;3.57;;;13.20;99.90;;;;;;4982032;28;20459;-72
2022/10/01 10:14:57;;;;;;;3.53;3.23;;;13.10;99.90;;;;;;4981446;28;20447;-71
2022/10/01 10:17:26;;;;;;;3.43;3.13;;;13.10;99.90;;;;;;4978951;28;20454;-70
2022/10/01 10:19:54;;;;;;;3.47;2.90;;;13.00;99.90;;;;;;4980009;28;20458;-69
2022/10/01 10:22:23;;;;;;;3.17;2.90;;;12.90;99.90;;;;;;4980182;28;20543;-71
2022/10/01 10:24:51;;;;;;;4.90;3.47;;;12.90;99.90;;;;;;4980561;28;20464;-70
2022/10/01 10:27:25;;;;;;;3.80;3.43;;;12.80;99.90;;;;;;4982184;28;20497;-70
2022/10/01 10:30:02;;;;;;;4.73;3.83;;;12.60;99.90;;;;;;4980711;28;20453;-71
2022/10/01 10:32:31;;;;;;;5.40;4.43;;;12.50;99.90;;;;;;4981888;28;20509;-70
2022/10/01 10:35:03;;;;;;;5.80;4.47;;;12.40;99.90;;;;;;4982456;28;20473;-71
2022/10/01 10:37:33;;;;;;;4.87;4.37;;;12.30;99.90;;;;;;4983262;28;20498;-71
2022/10/01 10:40:00;;;;;;;5.03;4.63;;;12.20;99.90;;;;;;4981075;28;20498;-72
2022/10/01 10:42:27;;;;;;;6.30;4.90;;;12.10;99.90;;;;;;4982667;28;20497;-71
2022/10/01 10:44:58;;;;;;;6.63;5.13;;;12.00;99.90;;;;;;4979004;28;20978;-71
2022/10/01 10:47:27;;;;;;;8.40;5.50;;;11.90;99.90;;;;;;4981122;28;20794;-71
2022/10/01 10:49:58;;;;;;;5.60;5.10;;;11.80;99.90;;;;;;4982880;28;20822;-71
2022/10/01 10:52:29;;;;;;;7.43;5.97;;;11.70;99.90;;;;;;4982317;28;20770;-70
2022/10/01 10:54:58;;;;;;;6.60;5.87;;;11.60;99.90;;;;;;4981568;28;20458;-70
2022/10/01 10:57:27;;;;;;;6.60;5.90;;;11.60;99.90;;;;;;4982175;28;20454;-69
2022/10/01 10:59:57;;;;;;;7.47;6.53;;;11.50;99.90;;;;;;4981109;28;20467;-70
2022/10/01 11:02:25;;;;;;;7.63;6.67;;;11.50;99.90;;;;;;4981590;28;20501;-70
2022/10/01 11:04:54;;;;;;;6.80;6.10;;;11.50;99.90;;;;;;4979462;28;20471;-70
2022/10/01 11:07:24;;;;;;;7.47;6.63;;;11.50;99.90;;;;;;4978406;28;20788;-70
2022/10/01 11:10:21;;;;;;;8.03;7.03;;;11.50;99.90;;;;;;4979304;28;20463;-70
2022/10/01 11:13:05;;;;;;;7.93;6.70;;;11.50;99.90;;;;;;4980177;28;20443;-69
2022/10/01 11:15:48;;;;;;;7.17;6.47;;;11.50;99.90;;;;;;4980885;28;20447;-70
2022/10/01 11:18:42;;;;;;;7.50;6.70;;;11.50;99.90;;;;;;4981483;28;20449;-70
2022/10/01 11:21:27;;;;;;;8.50;7.00;;;11.50;99.90;;;;;;4972626;28;20961;-69
2022/10/01 11:24:13;;;;;;;7.47;6.63;;;11.50;99.90;;;;;;4980976;28;20760;-70
2022/10/01 11:26:48;;;;;;;9.63;7.40;;;11.40;99.90;;;;;;4983623;28;20478;-70
2022/10/01 11:29:26;;;;;;;7.97;7.20;;;11.40;99.90;;;;;;4984096;28;20457;-70
2022/10/01 11:32:02;;;;;;;9.30;7.37;;;11.40;99.90;;;;;;4984294;28;20798;-70
2022/10/01 11:34:41;;;;;;;8.03;6.53;;;11.50;99.90;;;;;;4984138;28;20462;-70
2022/10/01 11:37:29;;;;;;;7.53;5.93;;;11.50;99.90;;;;;;4982924;28;20439;-69
2022/10/01 11:40:03;;;;;;;8.63;7.27;;;11.50;99.90;;;;;;4983274;28;20446;-71
2022/10/01 11:42:34;;;;;;;7.03;6.03;;;11.50;99.90;;;;;;4982662;28;20513;-70
2022/10/01 11:45:06;;;;;;;6.83;6.17;;;11.50;99.90;;;;;;4983461;28;20855;-70
2022/10/01 11:47:38;;;;;;;6.63;5.87;;;11.50;99.90;;;;;;4983611;28;20881;-70
2022/10/01 11:50:12;;;;;;;7.03;6.23;;;11.60;99.90;;;;;;4983593;28;20513;-70
2022/10/01 11:52:46;;;;;;;6.27;5.07;;;11.50;99.90;;;;;;4983089;28;20492;-70
2022/10/01 12:01:06;;;;;;;7.63;6.83;;;11.50;99.90;;;;;;4982952;28;20438;-70
2022/10/01 12:03:43;;;;;;;5.80;5.13;;;11.60;99.90;;;;;;4982202;28;20453;-70
2022/10/01 12:06:13;;;;;;;5.17;4.67;;;11.60;99.90;;;;;;4982278;28;20456;-70
2022/10/01 12:08:47;;;;;;;6.10;5.43;;;11.60;99.90;;;;;;4982697;28;20890;-69
2022/10/01 12:11:20;;;;;;;5.33;4.83;;;11.60;99.90;;;;;;4982800;28;20457;-70
2022/10/01 12:13:54;;;;;;;6.40;5.17;;;11.70;99.90;;;;;;4982754;28;20442;-70
2022/10/01 12:16:29;;;;;;;5.30;4.70;;;11.70;99.90;;;;;;4984864;28;20455;-70
2022/10/01 12:19:00;;;;;;;5.70;4.80;;;11.70;99.90;;;;;;4982884;28;20509;-70
2022/10/01 12:21:33;;;;;;;5.23;4.73;;;11.80;99.90;;;;;;4982785;28;20443;-70
2022/10/01 12:24:05;;;;;;;6.10;4.43;;;11.80;99.90;;;;;;4983727;28;20443;-70
2022/10/01 12:26:42;;;;;;;5.00;4.50;;;11.80;99.90;;;;;;4983778;28;20447;-69
2022/10/01 12:29:16;;;;;;;4.50;4.00;;;11.80;99.90;;;;;;4983729;28;20443;-69
2022/10/01 12:31:51;;;;;;;6.13;4.80;;;11.80;99.90;;;;;;4983315;28;20489;-70
2022/10/01 12:34:25;;;;;;;6.30;5.10;;;11.80;99.90;;;;;;4982073;28;20457;-70
2022/10/01 12:37:04;;;;;;;5.30;4.80;;;11.80;99.90;;;;;;4982881;28;20533;-70
2022/10/01 12:39:43;;;;;;;3.80;3.50;;;11.80;99.90;;;;;;4982685;28;20443;-70
2022/10/01 12:42:28;;;;;;;4.80;4.27;;;11.70;99.90;;;;;;4980805;28;20454;-69
2022/10/01 12:45:05;;;;;;;4.80;4.40;;;11.60;99.90;;;;;;4980176;28;20456;-69
2022/10/01 12:47:42;;;;;;;4.77;4.33;;;11.60;99.90;;;;;;4981045;28;20481;-70
2022/10/01 12:50:26;;;;;;;4.83;4.43;;;11.50;99.90;;;;;;4981491;28;20836;-70
2022/10/01 12:53:09;;;;;;;5.80;4.87;;;11.50;99.90;;;;;;4979168;28;20572;-69
2022/10/01 12:56:01;;;;;;;5.40;4.90;;;11.50;99.90;;;;;;4978734;28;20457;-69
2022/10/01 12:58:50;;;;;;;6.67;4.40;;;11.40;99.90;;;;;;4979665;28;20451;-69
2022/10/01 13:01:33;;;;;;;5.00;4.50;;;11.40;99.90;;;;;;4981138;28;20447;-69
2022/10/01 13:04:26;;;;;;;5.37;4.87;;;11.40;99.90;;;;;;4980028;28;20450;-71
2022/10/01 13:07:06;;;;;;;5.83;5.33;;;11.30;99.90;;;;;;4980191;28;20526;-70
2022/10/01 13:09:42;;;;;;;5.50;5.00;;;11.40;99.90;;;;;;4981997;28;20458;-69